Time;durP1;ratioP1;P1;durP2;ratioP2;P2;SDS_P1;SDS_P2;PMS_P1;PMS_P2;Temp;Humidity;BMP_temperature;BMP_pressure;BME280_temperature;BME280_humidity;BME280_pressure;Samples;Min_cycle;Max_cycle;Signal;HPM_P1;HPM_P2
2021/12/19 00:00:30;;;;;;;2.25;1.40;;;;;;;-1.37;69.87;98067.34;6048249;23;20019;-77
2021/12/19 00:11:05;;;;;;;2.17;1.17;;;;;;;-1.48;70.61;98010.25;6039532;23;20424;-78
2021/12/19 00:13:31;;;;;;;2.05;1.30;;;;;;;-1.38;70.86;98015.47;5990495;23;20027;-77
2021/12/19 00:15:57;;;;;;;2.88;1.10;;;;;;;-1.47;70.63;97994.09;6039795;23;20103;-80
2021/12/19 00:18:23;;;;;;;2.92;1.60;;;;;;;-1.57;70.55;97967.63;6014472;23;20465;-79
2021/12/19 00:20:49;;;;;;;2.92;1.20;;;;;;;-1.55;71.27;97966.78;6015856;23;20015;-81
2021/12/19 00:23:16;;;;;;;2.20;1.20;;;;;;;-1.36;71.05;97977.19;6013768;23;20026;-79
2021/12/19 00:25:42;;;;;;;1.88;1.20;;;;;;;-1.50;71.51;97950.69;6037850;23;20026;-79
2021/12/19 00:28:09;;;;;;;2.65;1.13;;;;;;;-1.50;71.17;97938.75;6012731;23;20023;-80
2021/12/19 00:30:34;;;;;;;2.85;1.10;;;;;;;-1.37;71.59;97955.91;6011958;23;20019;-79
2021/12/19 00:33:00;;;;;;;3.17;0.70;;;;;;;-1.41;71.15;97938.00;6012540;23;20075;-77
2021/12/19 00:35:27;;;;;;;1.75;0.60;;;;;;;-1.60;71.55;97914.03;6037868;23;20445;-79
2021/12/19 00:37:53;;;;;;;2.10;1.00;;;;;;;-1.35;71.42;97937.22;6013008;23;20023;-77
2021/12/19 00:40:21;;;;;;;0.90;0.70;;;;;;;-1.46;71.82;97906.50;6040061;23;20019;-78
2021/12/19 00:42:51;;;;;;;2.13;0.93;;;;;;;-1.35;71.98;97919.34;6066429;23;20018;-77
2021/12/19 00:45:30;;;;;;;1.35;0.80;;;;;;;-1.32;71.77;97897.25;6066206;23;20038;-77
2021/12/19 00:47:57;;;;;;;1.40;0.65;;;;;;;-1.39;71.55;97895.47;6072739;23;20039;-79
2021/12/19 00:50:24;;;;;;;1.48;1.00;;;;;;;-1.37;72.08;97886.16;6092414;23;20010;-80
2021/12/19 00:52:50;;;;;;;2.53;0.88;;;;;;;-1.24;71.84;97892.22;6059590;23;20023;-77
2021/12/19 00:55:18;;;;;;;1.20;0.57;;;;;;;-1.23;72.08;97881.16;6023980;23;20026;-78
2021/12/19 00:57:45;;;;;;;0.90;0.60;;;;;;;-1.26;71.99;97871.78;6069192;23;20046;-82
2021/12/19 01:00:14;;;;;;;1.10;0.68;;;;;;;-1.46;72.40;97830.78;6065938;23;20050;-79
2021/12/19 01:02:40;;;;;;;1.05;0.60;;;;;;;-1.25;72.32;97847.97;6066865;23;20489;-82
2021/12/19 01:05:07;;;;;;;1.75;0.80;;;;;;;-1.34;72.34;97824.94;6095546;23;20054;-76
2021/12/19 01:07:33;;;;;;;1.20;0.88;;;;;;;-1.15;72.21;97830.16;6034394;23;20018;-78
2021/12/19 01:09:59;;;;;;;1.50;0.57;;;;;;;-1.30;72.08;97800.28;6069286;23;20022;-80
2021/12/19 01:12:25;;;;;;;1.45;0.80;;;;;;;-1.48;71.82;97768.69;6088941;23;20121;-79
2021/12/19 01:14:52;;;;;;;0.63;0.40;;;;;;;-1.48;71.76;97763.59;6064339;23;20070;-78
2021/12/19 01:17:18;;;;;;;2.25;0.85;;;;;;;-1.27;72.19;97783.31;6066252;23;20047;-77
2021/12/19 01:19:47;;;;;;;0.93;0.50;;;;;;;-1.16;72.65;97785.91;6066389;23;20019;-80
2021/12/19 01:22:13;;;;;;;1.08;0.70;;;;;;;-1.19;72.36;97774.81;6017232;23;20022;-79
2021/12/19 01:24:39;;;;;;;1.27;0.68;;;;;;;-1.27;72.67;97756.91;6088675;23;20022;-77
2021/12/19 01:27:05;;;;;;;1.27;0.65;;;;;;;-1.33;72.41;97736.47;6065793;23;20039;-77
2021/12/19 01:29:31;;;;;;;0.88;0.50;;;;;;;-1.23;72.54;97746.75;6087572;23;20284;-77
2021/12/19 01:31:57;;;;;;;1.60;0.70;;;;;;;-1.17;72.51;97743.38;6066084;23;20464;-78
2021/12/19 01:34:23;;;;;;;1.88;1.13;;;;;;;-1.34;72.78;97699.88;6088534;23;20026;-79
2021/12/19 01:36:49;;;;;;;0.52;0.30;;;;;;;-1.39;73.26;97687.09;6064175;23;20023;-76
2021/12/19 01:39:15;;;;;;;0.47;0.30;;;;;;;-1.12;73.28;97721.28;6084804;23;20029;-77
2021/12/19 01:41:53;;;;;;;0.50;0.40;;;;;;;-1.14;73.16;97710.19;6037567;23;20039;-79
2021/12/19 01:44:19;;;;;;;0.38;0.30;;;;;;;-1.05;73.08;97711.94;6037347;23;20019;-78
2021/12/19 01:46:46;;;;;;;0.75;0.65;;;;;;;-0.98;73.33;97702.59;6037325;23;20023;-77
2021/12/19 01:49:17;;;;;;;0.82;0.38;;;;;;;-0.93;73.24;97694.09;5988167;23;20052;-76
2021/12/19 01:51:44;;;;;;;1.13;0.70;;;;;;;-0.90;73.35;97672.84;6013175;23;20031;-79
2021/12/19 01:54:10;;;;;;;1.58;0.90;;;;;;;-0.86;72.88;97679.63;6039243;23;20027;-78
2021/12/19 01:56:37;;;;;;;0.75;0.32;;;;;;;-0.93;73.46;97655.78;6040977;23;20132;-80
2021/12/19 01:59:04;;;;;;;1.25;0.70;;;;;;;-1.02;73.51;97640.47;6043816;23;20023;-77
2021/12/19 02:01:30;;;;;;;1.27;0.70;;;;;;;-1.10;73.53;97611.50;6043646;23;20015;-81
2021/12/19 02:03:56;;;;;;;2.75;0.98;;;;;;;-0.97;73.49;97638.75;6018265;23;20025;-78
2021/12/19 02:06:21;;;;;;;2.00;0.98;;;;;;;-0.94;73.48;97632.81;6016046;23;20046;-77
2021/12/19 02:08:53;;;;;;;3.22;0.85;;;;;;;-1.08;73.69;97597.03;6013267;23;20079;-78
2021/12/19 02:11:19;;;;;;;0.35;0.22;;;;;;;-1.09;73.42;97591.06;6037567;23;20030;-77
2021/12/19 02:13:45;;;;;;;1.58;0.85;;;;;;;-0.97;73.26;97594.50;6036850;23;20262;-79
2021/12/19 02:16:11;;;;;;;1.92;1.05;;;;;;;-0.86;74.42;97597.09;5995399;23;20027;-78
2021/12/19 02:18:37;;;;;;;1.63;0.70;;;;;;;-0.97;74.34;97572.38;6054834;23;20034;-77
2021/12/19 02:21:03;;;;;;;3.17;1.00;;;;;;;-0.91;73.78;97587.69;6016904;23;20107;-76
2021/12/19 02:23:29;;;;;;;2.45;1.20;;;;;;;-0.89;73.72;97569.84;6012427;23;20019;-79
2021/12/19 02:25:56;;;;;;;0.98;0.47;;;;;;;-0.92;73.40;97570.69;6012307;23;20431;-78
2021/12/19 02:28:22;;;;;;;1.17;0.68;;;;;;;-1.22;74.19;97510.22;6035122;23;20026;-76
2021/12/19 02:30:50;;;;;;;4.30;1.10;;;;;;;-0.93;74.72;97551.09;6042410;23;20079;-79
2021/12/19 02:33:20;;;;;;;0.85;0.57;;;;;;;-1.04;74.10;97518.75;6063192;23;20034;-77
2021/12/19 02:35:55;;;;;;;2.28;1.10;;;;;;;-0.94;74.33;97526.41;6055589;23;20020;-75
2021/12/19 02:49:19;;;;;;;1.60;0.98;;;;;;;-1.01;74.30;97478.75;6067009;23;20114;-76
2021/12/19 02:51:46;;;;;;;0.98;0.52;;;;;;;-1.06;74.84;97471.09;6065941;23;20073;-78
2021/12/19 02:54:12;;;;;;;2.85;1.30;;;;;;;-1.09;74.57;97457.47;6090987;23;20046;-77
2021/12/19 02:56:38;;;;;;;3.90;0.90;;;;;;;-1.23;74.92;97424.28;6069134;23;20097;-77
2021/12/19 02:59:03;;;;;;;1.58;0.80;;;;;;;-1.07;74.99;97443.84;6068898;23;20041;-77
2021/12/19 03:01:30;;;;;;;1.50;0.60;;;;;;;-1.18;74.42;97411.53;6094182;23;20244;-76
2021/12/19 03:03:56;;;;;;;2.50;0.90;;;;;;;-1.04;74.75;97420.03;6088961;23;20019;-78
2021/12/19 03:06:22;;;;;;;2.13;1.17;;;;;;;-1.01;74.98;97407.28;6065412;23;20040;-77
2021/12/19 03:08:50;;;;;;;4.65;1.65;;;;;;;-1.04;74.97;97401.31;6078114;23;20022;-77
2021/12/19 03:19:33;;;;;;;2.75;1.42;;;;;;;-0.73;75.23;97396.16;6039121;23;20405;-77
2021/12/19 03:21:59;;;;;;;1.92;1.02;;;;;;;-0.78;74.60;97393.63;6067962;23;20205;-77
2021/12/19 03:24:25;;;;;;;0.68;0.35;;;;;;;-0.72;75.55;97390.22;6070020;23;20023;-78
2021/12/19 03:26:51;;;;;;;3.05;1.63;;;;;;;-0.94;75.62;97355.34;6072067;23;20018;-74
2021/12/19 03:29:16;;;;;;;1.48;0.82;;;;;;;-0.72;75.17;97378.28;6088087;23;20033;-78
2021/12/19 03:31:43;;;;;;;0.75;0.50;;;;;;;-0.90;75.26;97323.00;6070916;23;20019;-79
2021/12/19 03:34:08;;;;;;;2.05;0.93;;;;;;;-0.73;74.59;97366.34;6081717;23;20022;-74
2021/12/19 03:36:34;;;;;;;2.65;1.00;;;;;;;-0.82;74.75;97341.69;6086180;23;20532;-75
2021/12/19 03:39:04;;;;;;;6.38;1.90;;;;;;;-0.74;75.56;97338.28;6084557;23;20046;-75
2021/12/19 03:41:34;;;;;;;1.45;0.70;;;;;;;-0.77;75.23;97339.09;6059501;23;20078;-78
2021/12/19 03:44:04;;;;;;;2.60;1.00;;;;;;;-0.81;75.27;97325.50;6010587;23;20040;-75
2021/12/19 03:46:31;;;;;;;3.42;1.35;;;;;;;-0.83;74.65;97313.63;6058588;23;20520;-75
2021/12/19 03:48:57;;;;;;;5.15;1.65;;;;;;;-0.70;75.25;97324.66;6058953;23;20034;-77
2021/12/19 03:51:23;;;;;;;2.67;1.33;;;;;;;-0.85;75.53;97293.16;5996610;23;20023;-77
2021/12/19 03:53:49;;;;;;;2.47;1.10;;;;;;;-0.67;75.56;97302.47;6038883;23;20023;-77
2021/12/19 03:56:15;;;;;;;5.93;1.45;;;;;;;-0.67;76.20;97278.66;6038801;23;20110;-76
2021/12/19 03:58:41;;;;;;;2.05;1.20;;;;;;;-0.79;75.25;97262.50;6005327;23;20022;-76
2021/12/19 04:01:09;;;;;;;2.10;1.20;;;;;;;-0.66;75.65;97283.75;6047632;23;20007;-78
2021/12/19 04:03:35;;;;;;;3.13;1.10;;;;;;;-0.69;75.45;97270.97;6039382;23;20071;-78
2021/12/19 04:06:01;;;;;;;3.05;0.90;;;;;;;-0.85;75.24;97248.94;6037243;23;20034;-75
2021/12/19 04:08:27;;;;;;;3.47;1.10;;;;;;;-0.67;75.28;97259.06;6039553;23;20023;-79
2021/12/19 04:10:54;;;;;;;6.15;1.85;;;;;;;-0.53;76.61;97253.03;6014558;23;20023;-78
2021/12/19 04:13:20;;;;;;;3.95;1.27;;;;;;;-0.59;75.69;97241.13;6027091;23;20220;-79
2021/12/19 04:15:50;;;;;;;9.18;2.17;;;;;;;-0.49;76.33;97247.91;6065409;23;20034;-80
2021/12/19 04:18:16;;;;;;;5.95;1.55;;;;;;;-0.56;75.70;97230.06;6012035;23;20003;-75
2021/12/19 04:20:42;;;;;;;4.80;1.45;;;;;;;-0.69;75.44;97209.69;6001375;23;20028;-77
2021/12/19 04:23:08;;;;;;;3.90;1.23;;;;;;;-0.69;75.75;97201.19;6014307;23;20054;-77
2021/12/19 04:25:34;;;;;;;3.03;1.50;;;;;;;-0.41;76.14;97242.75;6016751;23;20453;-79
2021/12/19 04:28:00;;;;;;;5.40;1.58;;;;;;;-0.45;76.90;97195.06;6038661;23;20030;-80
2021/12/19 04:30:26;;;;;;;11.15;2.42;;;;;;;-0.33;77.05;97194.97;5990393;23;20019;-76
2021/12/19 04:33:03;;;;;;;6.03;2.00;;;;;;;-0.25;77.12;97177.06;6039730;23;20071;-77
2021/12/19 04:35:33;;;;;;;9.63;2.10;;;;;;;-0.13;76.63;97198.25;6037354;23;20019;-79
2021/12/19 04:57:02;;;;;;;4.95;1.63;;;;;;;-0.30;75.87;97166.00;6013109;23;20095;-79
2021/12/19 05:15:29;;;;;;;11.32;2.53;;;;;;;-0.20;77.25;97113.94;6038474;23;20015;-77
2021/12/19 05:18:00;;;;;;;8.13;1.98;;;;;;;-0.18;77.02;97109.66;6036862;23;20402;-77
2021/12/19 05:20:28;;;;;;;4.63;1.40;;;;;;;-0.17;76.68;97110.53;5989579;23;20011;-80
2021/12/19 05:23:01;;;;;;;5.18;1.73;;;;;;;-0.16;77.28;97096.88;5988994;23;20033;-79
2021/12/19 05:25:27;;;;;;;5.10;1.30;;;;;;;-0.21;77.53;97089.22;6012805;23;20026;-78
2021/12/19 05:27:55;;;;;;;8.77;1.88;;;;;;;-0.20;77.32;97090.09;6035878;23;20105;-78
2021/12/19 05:30:22;;;;;;;9.02;1.95;;;;;;;-0.19;77.48;97097.72;6011729;23;20023;-79
2021/12/19 05:32:50;;;;;;;6.50;1.80;;;;;;;-0.39;77.20;97041.72;5966614;23;20424;-79
2021/12/19 05:35:31;;;;;;;8.70;2.22;;;;;;;-0.14;76.68;97081.50;6037985;23;20517;-78
2021/12/19 05:46:09;;;;;;;5.28;1.50;;;;;;;0.02;77.21;97072.81;6065258;23;20126;-78
2021/12/19 05:48:35;;;;;;;17.95;3.20;;;;;;;-0.09;77.81;97052.47;6102334;23;20018;-77
2021/12/19 05:51:01;;;;;;;13.80;2.80;;;;;;;-0.10;77.20;97048.22;6106943;23;20023;-79
2021/12/19 05:53:27;;;;;;;12.10;2.33;;;;;;;-0.06;76.88;97061.84;6089269;23;20019;-79
2021/12/19 05:55:52;;;;;;;14.30;2.60;;;;;;;-0.15;77.71;97034.66;6066495;23;20018;-79
2021/12/19 05:58:18;;;;;;;14.45;2.60;;;;;;;-0.03;78.03;97052.44;6089293;23;20059;-79
2021/12/19 06:00:44;;;;;;;8.23;2.20;;;;;;;-0.05;77.47;97051.59;6084947;23;20492;-77
2021/12/19 06:03:10;;;;;;;5.97;1.58;;;;;;;-0.13;77.19;97029.53;6072512;23;20057;-78
2021/12/19 06:05:36;;;;;;;13.43;3.13;;;;;;;-0.06;77.81;97028.59;6068086;23;20029;-78
2021/12/19 06:08:02;;;;;;;12.32;2.47;;;;;;;-0.08;77.16;97020.94;6067647;23;20023;-76
2021/12/19 06:10:28;;;;;;;17.20;3.22;;;;;;;-0.05;77.34;97015.78;6067508;23;20029;-79
2021/12/19 06:12:57;;;;;;;19.75;3.63;;;;;;;0.00;78.42;97015.78;6066974;23;20058;-77
2021/12/19 06:15:23;;;;;;;12.00;2.95;;;;;;;0.18;78.34;97030.03;6067893;23;20443;-79
2021/12/19 06:17:50;;;;;;;19.50;3.70;;;;;;;-0.07;78.83;96952.78;6069373;23;20093;-76
2021/12/19 06:20:16;;;;;;;4.85;1.67;;;;;;;0.19;77.82;96992.53;6044834;23;20015;-79
2021/12/19 06:22:42;;;;;;;7.25;2.15;;;;;;;0.00;78.03;96956.97;6068920;23;20015;-78
2021/12/19 06:25:09;;;;;;;6.43;2.17;;;;;;;-0.05;77.76;96940.81;6095447;23;20207;-78
2021/12/19 06:27:35;;;;;;;19.67;3.47;;;;;;;0.31;78.08;96994.91;6070032;23;20019;-79
2021/12/19 06:30:02;;;;;;;23.10;3.70;;;;;;;0.35;78.25;96994.03;6072813;23;20023;-81
2021/12/19 06:32:29;;;;;;;15.20;2.60;;;;;;;0.35;77.94;96985.50;6051045;23;20109;-77
2021/12/19 06:34:55;;;;;;;11.50;3.10;;;;;;;0.36;77.68;96989.75;6094436;23;20029;-76
2021/12/19 06:37:20;;;;;;;8.05;2.50;;;;;;;0.43;77.80;96993.91;6076901;23;20030;-79
2021/12/19 06:39:46;;;;;;;24.65;4.13;;;;;;;0.45;77.11;96984.50;6070264;23;20042;-80
2021/12/19 06:42:13;;;;;;;11.82;3.63;;;;;;;0.48;78.51;96976.81;6080200;23;20022;-78
2021/12/19 06:44:38;;;;;;;11.50;2.15;;;;;;;0.52;77.55;96982.72;6072411;23;20025;-79
2021/12/19 06:47:05;;;;;;;15.48;3.30;;;;;;;0.49;78.43;96977.63;6075409;23;20397;-78
2021/12/19 06:49:31;;;;;;;12.38;2.97;;;;;;;0.44;77.89;96970.03;6072930;23;20039;-78
2021/12/19 06:51:58;;;;;;;21.20;4.00;;;;;;;0.65;78.53;96965.47;6073063;23;20066;-77
2021/12/19 06:54:24;;;;;;;18.42;3.53;;;;;;;0.43;78.07;96930.81;6098562;23;20026;-79
2021/12/19 06:56:51;;;;;;;13.13;2.58;;;;;;;0.31;77.96;96904.56;6052492;23;20019;-79
2021/12/19 06:59:17;;;;;;;6.13;1.77;;;;;;;0.41;77.13;96914.63;6084587;23;20017;-80
2021/12/19 07:01:43;;;;;;;15.73;3.28;;;;;;;0.70;78.11;96956.03;6082320;23;20091;-78
2021/12/19 07:04:09;;;;;;;24.52;4.25;;;;;;;0.75;77.96;96951.69;6067313;23;20465;-80
2021/12/19 07:06:34;;;;;;;17.25;3.92;;;;;;;0.60;77.45;96919.47;6067545;23;20019;-81
2021/12/19 07:09:01;;;;;;;17.08;3.55;;;;;;;0.73;78.12;96940.63;6068220;23;20026;-80
2021/12/19 07:11:27;;;;;;;25.35;4.93;;;;;;;0.68;77.84;96932.16;6073043;23;20029;-79
2021/12/19 07:13:53;;;;;;;22.67;4.63;;;;;;;0.72;78.24;96924.41;6073775;23;20036;-81
2021/12/19 07:16:24;;;;;;;19.75;4.35;;;;;;;0.77;78.42;96920.94;6069897;23;20018;-74
2021/12/19 07:18:55;;;;;;;7.95;2.60;;;;;;;0.08;77.65;96839.22;6024324;23;20023;-78
2021/12/19 07:21:23;;;;;;;20.02;4.88;;;;;;;-0.16;78.08;96777.34;6050273;23;20417;-78
2021/12/19 07:23:50;;;;;;;13.60;2.42;;;;;;;0.20;77.85;96856.94;6094483;23;20046;-82
2021/12/19 07:26:15;;;;;;;14.35;2.67;;;;;;;0.52;78.52;96888.03;6047290;23;20023;-79
2021/12/19 07:28:44;;;;;;;26.77;5.55;;;;;;;0.74;78.07;96916.72;6073203;23;20453;-79
2021/12/19 07:31:10;;;;;;;13.55;3.60;;;;;;;0.73;77.25;96912.47;6099513;23;20222;-78
2021/12/19 07:33:36;;;;;;;26.92;5.57;;;;;;;0.57;78.22;96881.13;6082656;23;20027;-75
2021/12/19 07:36:02;;;;;;;17.92;5.25;;;;;;;0.70;77.92;96892.03;6072160;23;20014;-80
2021/12/19 07:38:40;;;;;;;20.20;6.18;;;;;;;0.77;77.46;96897.88;6048266;23;20373;-75
2021/12/19 07:41:06;;;;;;;16.45;4.97;;;;;;;0.52;77.15;96862.44;6066169;23;20026;-80
2021/12/19 07:43:32;;;;;;;18.17;4.32;;;;;;;0.28;77.48;96827.00;6113293;23;20027;-77
2021/12/19 07:45:57;;;;;;;18.65;5.28;;;;;;;0.46;77.79;96848.03;6077727;23;20030;-77
2021/12/19 07:48:23;;;;;;;26.40;5.97;;;;;;;0.51;78.28;96848.81;6071872;23;20243;-81
2021/12/19 07:50:49;;;;;;;24.65;6.25;;;;;;;0.40;77.84;96813.16;6070403;23;20046;-76
2021/12/19 07:53:15;;;;;;;15.82;4.50;;;;;;;0.82;77.71;96863.66;6079314;23;20022;-77
2021/12/19 07:55:41;;;;;;;19.00;5.50;;;;;;;0.30;78.12;96786.03;6078897;23;20484;-77
2021/12/19 07:58:07;;;;;;;17.52;5.75;;;;;;;0.99;77.96;96883.84;6053901;23;20023;-77
2021/12/19 08:00:34;;;;;;;16.65;5.65;;;;;;;1.02;78.01;96876.13;6077949;23;20065;-77
2021/12/19 08:03:00;;;;;;;10.73;4.53;;;;;;;0.90;78.17;96848.16;6078078;23;20098;-77
2021/12/19 08:05:32;;;;;;;15.73;5.60;;;;;;;0.51;78.28;96771.19;6054419;23;20019;-77
2021/12/19 08:08:03;;;;;;;18.75;5.85;;;;;;;-0.05;77.56;96673.19;6080621;23;20015;-77
2021/12/19 08:13:05;;;;;;;14.50;6.05;;;;;;;1.04;77.64;96830.84;6097433;23;20038;-78
2021/12/19 08:15:33;;;;;;;12.73;4.68;;;;;;;0.44;77.38;96737.19;6077056;23;20038;-77
2021/12/19 08:18:00;;;;;;;10.13;4.88;;;;;;;0.39;77.37;96721.94;6073940;23;20019;-75
2021/12/19 08:20:27;;;;;;;17.83;5.57;;;;;;;0.45;77.79;96731.19;6049825;23;20047;-75
2021/12/19 08:22:57;;;;;;;12.38;4.30;;;;;;;1.20;78.17;96857.03;6068788;23;20018;-76
2021/12/19 08:25:27;;;;;;;13.57;5.57;;;;;;;1.00;77.69;96843.72;6050910;23;20074;-76
2021/12/19 08:27:54;;;;;;;12.63;5.80;;;;;;;0.45;77.74;96746.56;6075262;23;20020;-77
2021/12/19 08:30:24;;;;;;;13.68;5.72;;;;;;;0.65;77.69;96747.91;6076605;23;20019;-77
2021/12/19 08:33:06;;;;;;;12.85;5.55;;;;;;;1.17;77.99;96840.84;6054475;23;20022;-75
2021/12/19 08:35:33;;;;;;;11.65;4.25;;;;;;;0.84;78.05;96774.88;6076641;23;20022;-77
2021/12/19 08:38:02;;;;;;;13.05;5.20;;;;;;;1.11;78.19;96810.22;6070353;23;20094;-77
2021/12/19 08:40:32;;;;;;;12.15;5.70;;;;;;;0.37;78.28;96674.19;6049599;23;20030;-77
2021/12/19 08:42:58;;;;;;;11.32;5.10;;;;;;;1.13;78.04;96799.09;6095008;23;20019;-78
2021/12/19 08:45:24;;;;;;;12.15;5.43;;;;;;;1.13;77.73;96796.53;6071810;23;20469;-81
2021/12/19 08:48:05;;;;;;;13.73;4.90;;;;;;;1.17;78.14;96800.72;6070370;23;20050;-79
2021/12/19 08:50:39;;;;;;;12.60;5.25;;;;;;;0.87;78.39;96738.13;6019904;23;20026;-79
2021/12/19 08:53:06;;;;;;;13.40;5.28;;;;;;;1.39;77.08;96832.75;6019101;23;20058;-77
2021/12/19 08:55:33;;;;;;;11.77;4.85;;;;;;;1.11;77.80;96777.78;6041575;23;20018;-79
2021/12/19 08:57:59;;;;;;;11.55;4.63;;;;;;;1.45;77.70;96810.41;6089446;23;20066;-79
2021/12/19 09:00:25;;;;;;;11.73;4.88;;;;;;;1.38;78.09;96800.31;6066572;23;20015;-78
2021/12/19 09:02:54;;;;;;;10.35;4.68;;;;;;;1.29;77.77;96779.16;6068556;23;20030;-78
2021/12/19 09:05:24;;;;;;;13.60;4.43;;;;;;;1.62;77.82;96804.13;6091628;23;20023;-81
2021/12/19 09:07:51;;;;;;;6.53;3.70;;;;;;;1.57;77.92;96781.13;6093738;23;20074;-78
2021/12/19 09:10:18;;;;;;;10.57;4.25;;;;;;;1.60;77.58;96772.53;6070276;23;20592;-78
2021/12/19 09:12:44;;;;;;;8.43;3.90;;;;;;;1.51;77.75;96742.84;6069450;23;20021;-78
2021/12/19 09:15:09;;;;;;;7.32;3.38;;;;;;;1.77;77.76;96777.28;6069322;23;20414;-80
2021/12/19 09:17:39;;;;;;;8.20;4.40;;;;;;;1.39;77.33;96713.19;6074164;23;20014;-81
2021/12/19 09:20:07;;;;;;;9.85;5.07;;;;;;;1.92;77.85;96786.38;6113439;23;20014;-78
2021/12/19 09:22:33;;;;;;;10.18;4.30;;;;;;;1.90;77.50;96790.69;6067301;23;20123;-78
2021/12/19 09:24:59;;;;;;;8.48;3.72;;;;;;;1.74;77.16;96742.31;6091081;23;20022;-77
2021/12/19 09:27:25;;;;;;;9.68;4.05;;;;;;;1.73;77.36;96738.06;6106975;23;20046;-77
2021/12/19 09:29:53;;;;;;;11.75;4.68;;;;;;;1.99;76.91;96769.97;6070264;23;20019;-79
2021/12/19 09:32:19;;;;;;;5.32;3.65;;;;;;;1.64;77.31;96700.66;6093376;23;20023;-79
2021/12/19 09:34:46;;;;;;;7.63;3.95;;;;;;;2.04;76.27;96773.28;6068194;23;20022;-78
2021/12/19 09:37:12;;;;;;;11.07;4.50;;;;;;;1.82;77.06;96738.75;6068054;23;20018;-81
2021/12/19 09:39:40;;;;;;;11.73;4.57;;;;;;;2.02;76.87;96763.91;6067566;23;20050;-81
2021/12/19 09:42:09;;;;;;;12.77;5.20;;;;;;;1.64;76.30;96707.53;6067548;23;20103;-77
2021/12/19 09:44:38;;;;;;;8.70;4.68;;;;;;;1.90;76.87;96773.59;6066110;23;20023;-80
2021/12/19 09:47:07;;;;;;;12.27;4.95;;;;;;;1.65;76.89;96719.47;6067238;23;20019;-79
2021/12/19 09:49:34;;;;;;;13.25;4.82;;;;;;;1.79;76.74;96745.63;6065764;23;20119;-80
2021/12/19 09:52:02;;;;;;;12.32;5.93;;;;;;;1.74;76.63;96726.94;6068632;23;20030;-79
2021/12/19 09:54:28;;;;;;;10.98;5.65;;;;;;;1.82;76.92;96743.88;6092809;23;20626;-78
2021/12/19 09:56:55;;;;;;;11.32;5.93;;;;;;;1.70;77.08;96715.06;6080389;23;20018;-78
2021/12/19 09:59:23;;;;;;;11.52;5.80;;;;;;;1.62;76.66;96683.63;6067146;23;20018;-78
2021/12/19 10:01:50;;;;;;;10.57;4.63;;;;;;;1.95;76.37;96730.75;6069523;23;20022;-81
2021/12/19 10:04:36;;;;;;;15.05;5.13;;;;;;;1.96;76.99;96721.31;6091320;23;20046;-78
2021/12/19 10:07:20;;;;;;;14.05;5.15;;;;;;;2.03;76.36;96733.13;6068608;23;20094;-79
2021/12/19 10:09:59;;;;;;;10.73;5.25;;;;;;;1.98;76.05;96714.41;6070693;23;20023;-80
2021/12/19 10:14:58;;;;;;;11.60;5.05;;;;;;;1.90;76.30;96690.66;6093248;23;20023;-80
2021/12/19 10:17:23;;;;;;;13.52;5.78;;;;;;;2.04;75.94;96711.72;6095453;23;20018;-79
2021/12/19 10:19:55;;;;;;;9.45;5.60;;;;;;;2.02;76.22;96707.47;6070882;23;20362;-80
2021/12/19 10:22:50;;;;;;;12.23;5.80;;;;;;;2.05;76.00;96695.44;6095476;23;20073;-81
2021/12/19 10:25:23;;;;;;;13.77;5.40;;;;;;;2.14;76.09;96702.06;6050513;23;20025;-77
2021/12/19 10:27:53;;;;;;;10.90;5.70;;;;;;;2.16;76.06;96696.91;6093040;23;20026;-80
2021/12/19 10:30:35;;;;;;;12.55;5.53;;;;;;;2.14;76.00;96703.78;6080336;23;20019;-75
2021/12/19 10:33:07;;;;;;;13.30;6.47;;;;;;;2.06;76.25;96686.88;6076531;23;20436;-81
2021/12/19 10:35:40;;;;;;;11.52;6.18;;;;;;;2.10;75.23;96675.63;6097704;23;20025;-80
2021/12/19 10:38:34;;;;;;;14.27;5.80;;;;;;;2.18;75.72;96690.88;6047095;23;20022;-82
2021/12/19 10:41:11;;;;;;;11.18;5.72;;;;;;;2.27;75.76;96689.78;6069173;23;20342;-80
2021/12/19 10:46:31;;;;;;;8.68;5.10;;;;;;;2.10;75.29;96662.81;6074277;23;20135;-79
2021/12/19 10:49:09;;;;;;;9.55;5.20;;;;;;;2.24;75.52;96682.16;6072267;23;20026;-81
2021/12/19 10:51:38;;;;;;;7.20;4.60;;;;;;;2.16;75.48;96666.09;6079772;23;20044;-80
2021/12/19 10:54:07;;;;;;;10.27;4.38;;;;;;;2.07;75.39;96660.34;6052917;23;20051;-79
2021/12/19 10:56:40;;;;;;;6.85;4.50;;;;;;;2.14;75.16;96678.97;6074769;23;20022;-78
2021/12/19 10:59:14;;;;;;;9.20;4.45;;;;;;;2.08;75.05;96669.72;6074004;23;20022;-80
2021/12/19 11:01:44;;;;;;;5.78;4.10;;;;;;;2.13;75.40;96659.34;6048897;23;20041;-77
2021/12/19 11:04:12;;;;;;;10.35;4.85;;;;;;;2.23;75.11;96676.16;6076056;23;20058;-75
2021/12/19 11:06:41;;;;;;;11.43;4.38;;;;;;;2.05;74.99;96649.28;6086791;23;20477;-80
2021/12/19 11:09:12;;;;;;;8.85;5.55;;;;;;;2.25;75.17;96673.59;6084106;23;20065;-76
2021/12/19 11:12:03;;;;;;;7.82;4.68;;;;;;;2.41;75.04;96692.84;6100695;23;20023;-78
2021/12/19 11:14:52;;;;;;;6.57;4.55;;;;;;;2.24;74.76;96653.94;6072730;23;20105;-79
2021/12/19 11:17:26;;;;;;;10.02;4.57;;;;;;;1.87;74.51;96590.75;6095540;23;20033;-82
2021/12/19 11:19:55;;;;;;;6.45;3.60;;;;;;;2.46;74.55;96691.88;6048954;23;20368;-84
2021/12/19 11:22:28;;;;;;;8.50;3.60;;;;;;;1.41;74.47;96506.44;6073466;23;20026;-81
2021/12/19 11:25:01;;;;;;;6.88;3.55;;;;;;;2.50;74.59;96683.22;6071292;23;20025;-84
2021/12/19 11:27:30;;;;;;;6.28;4.10;;;;;;;2.51;74.66;96701.13;6070470;23;20018;-79
2021/12/19 11:29:57;;;;;;;6.78;3.40;;;;;;;2.09;74.31;96625.25;6091511;23;20030;-81
2021/12/19 11:32:37;;;;;;;10.38;3.85;;;;;;;2.10;74.37;96610.69;6076525;23;20019;-77
2021/12/19 11:35:18;;;;;;;6.85;4.22;;;;;;;2.19;74.43;96625.84;6046183;23;20493;-78
2021/12/19 11:38:08;;;;;;;7.00;3.47;;;;;;;2.75;74.11;96685.13;6099309;23;19998;-78
2021/12/19 11:40:37;;;;;;;5.70;3.10;;;;;;;2.85;73.89;96689.97;6083210;23;20406;-78
2021/12/19 11:43:11;;;;;;;5.63;3.50;;;;;;;2.75;73.98;96664.59;6074748;23;20018;-80
2021/12/19 11:45:58;;;;;;;5.90;3.22;;;;;;;2.55;74.37;96630.00;6066741;23;20026;-80
2021/12/19 11:48:34;;;;;;;7.32;3.08;;;;;;;2.68;74.20;96639.06;6025946;23;20014;-78
2021/12/19 11:51:08;;;;;;;6.05;3.30;;;;;;;3.04;74.00;96678.31;6071061;23;20025;-78
2021/12/19 11:53:43;;;;;;;4.93;3.00;;;;;;;2.58;73.72;96606.00;6076544;23;20073;-80
2021/12/19 11:56:14;;;;;;;5.32;2.80;;;;;;;2.19;73.45;96548.00;6098038;23;20023;-79
2021/12/19 11:58:49;;;;;;;6.93;3.10;;;;;;;2.88;73.25;96691.59;6076538;23;20101;-80
2021/12/19 12:01:42;;;;;;;6.90;3.22;;;;;;;2.49;73.21;96625.06;6091868;23;20026;-79
2021/12/19 12:04:21;;;;;;;5.78;3.03;;;;;;;1.87;73.22;96517.22;6047162;23;20022;-76
2021/12/19 12:06:55;;;;;;;5.38;3.15;;;;;;;1.90;73.22;96536.81;6096838;23;20360;-79
2021/12/19 12:09:29;;;;;;;8.43;3.20;;;;;;;2.94;73.26;96688.00;6069167;23;20519;-79
2021/12/19 12:12:05;;;;;;;7.20;3.38;;;;;;;2.95;73.35;96672.56;6071776;23;20086;-81
2021/12/19 12:14:53;;;;;;;7.40;3.75;;;;;;;2.49;73.50;96586.56;6093067;23;20472;-77
2021/12/19 12:17:26;;;;;;;5.65;3.40;;;;;;;2.74;73.03;96621.81;6068815;23;20105;-80
2021/12/19 12:20:20;;;;;;;5.25;2.85;;;;;;;2.54;72.63;96587.25;6071162;23;20038;-81
2021/12/19 12:22:56;;;;;;;5.55;2.40;;;;;;;2.48;72.99;96569.47;6067172;23;20018;-80
2021/12/19 12:25:27;;;;;;;5.53;2.58;;;;;;;3.12;73.30;96671.25;6069316;23;20018;-81
2021/12/19 12:28:02;;;;;;;4.28;2.60;;;;;;;3.09;72.93;96669.59;6044307;23;20105;-80
2021/12/19 12:30:55;;;;;;;8.00;2.50;;;;;;;3.09;72.83;96655.91;6069768;23;20034;-80
2021/12/19 12:33:27;;;;;;;3.95;2.22;;;;;;;2.82;72.67;96630.13;6068217;23;20023;-77
2021/12/19 12:35:54;;;;;;;4.75;2.38;;;;;;;2.63;72.54;96604.97;6068707;23;20413;-79
2021/12/19 12:38:21;;;;;;;4.32;2.40;;;;;;;2.18;72.21;96543.75;6068857;23;20465;-78
2021/12/19 12:43:27;;;;;;;7.30;2.20;;;;;;;2.96;72.33;96673.41;6091948;23;20148;-79
2021/12/19 12:46:19;;;;;;;3.55;2.00;;;;;;;2.93;72.11;96661.50;6069378;23;20136;-79
2021/12/19 12:49:03;;;;;;;3.47;2.23;;;;;;;2.89;72.34;96666.75;6086213;23;20033;-76
2021/12/19 12:51:34;;;;;;;3.28;2.33;;;;;;;2.89;72.21;96666.75;6089758;23;20039;-78
2021/12/19 12:54:21;;;;;;;3.60;1.90;;;;;;;2.91;72.07;96664.97;6079593;23;20106;-77
2021/12/19 12:56:51;;;;;;;4.05;2.28;;;;;;;1.58;71.98;96443.66;6074719;23;20026;-79
2021/12/19 12:59:25;;;;;;;3.10;2.15;;;;;;;2.19;71.51;96563.41;6072278;23;20023;-79
2021/12/19 13:04:53;;;;;;;3.67;2.25;;;;;;;3.00;72.51;96662.16;6068251;23;20072;-77
2021/12/19 13:07:29;;;;;;;3.10;1.67;;;;;;;2.33;71.62;96558.72;6091379;23;20022;-79